sensor_id;sensor_type;location;lat;lon;timestamp;pressure;altitude;pressure_sealevel;temperature;humidity
12913;BME280;6524;51.368;11.984;2023-09-12T04:02:22;155230.91;;;14.11;84.25
12913;BME280;6524;51.368;11.984;2023-09-12T04:07:23;155249.25;;;14.18;83.71
12913;BME280;6524;51.368;11.984;2023-09-12T04:12:24;155255.75;;;14.21;84.23
12913;BME280;6524;51.368;11.984;2023-09-12T04:17:24;155279.31;;;14.30;84.55
12913;BME280;6524;51.368;11.984;2023-09-12T04:22:24;155315.94;;;14.44;83.41
12913;BME280;6524;51.368;11.984;2023-09-12T04:27:25;155279.31;;;14.30;82.70
12913;BME280;6524;51.368;11.984;2023-09-12T04:32:25;155234.88;;;14.13;83.41
12913;BME280;6524;51.368;11.984;2023-09-12T04:37:25;155271.47;;;14.27;82.19
12913;BME280;6524;51.368;11.984;2023-09-12T04:42:26;155267.56;;;14.25;82.31
12913;BME280;6524;51.368;11.984;2023-09-12T04:47:26;155271.47;;;14.27;82.67
12913;BME280;6524;51.368;11.984;2023-09-12T04:52:27;155281.94;;;14.31;82.97
12913;BME280;6524;51.368;11.984;2023-09-12T04:57:27;155271.47;;;14.27;83.04
12913;BME280;6524;51.368;11.984;2023-09-12T05:02:30;155250.56;;;14.19;83.71
12913;BME280;6524;51.368;11.984;2023-09-12T05:07:31;155232.22;;;14.11;84.19
12913;BME280;6524;51.368;11.984;2023-09-12T05:12:31;155283.25;;;14.31;83.74
12913;BME280;6524;51.368;11.984;2023-09-12T05:17:31;155288.44;;;14.33;83.32
12913;BME280;6524;51.368;11.984;2023-09-12T05:22:32;155297.66;;;14.37;83.20
12913;BME280;6524;51.368;11.984;2023-09-12T05:27:32;155314.63;;;14.44;82.42
12913;BME280;6524;51.368;11.984;2023-09-12T05:32:32;155365.69;;;14.64;82.04
12913;BME280;6524;51.368;11.984;2023-09-12T05:37:33;155471.63;;;15.05;81.21
12913;BME280;6524;51.368;11.984;2023-09-12T05:42:33;155454.63;;;14.98;81.15
12913;BME280;6524;51.368;11.984;2023-09-12T05:47:33;155538.41;;;15.31;80.05
12913;BME280;6524;51.368;11.984;2023-09-12T05:52:34;155635.31;;;15.69;78.98
12913;BME280;6524;51.368;11.984;2023-09-12T05:57:34;155675.88;;;15.85;78.17
12913;BME280;6524;51.368;11.984;2023-09-12T06:02:34;155721.66;;;16.03;78.03
12913;BME280;6524;51.368;11.984;2023-09-12T06:07:35;155767.56;;;16.21;78.42
12913;BME280;6524;51.368;11.984;2023-09-12T06:12:36;155816.00;;;16.39;78.30
12913;BME280;6524;51.368;11.984;2023-09-12T06:17:37;155926.03;;;16.82;76.15
12913;BME280;6524;51.368;11.984;2023-09-12T06:22:37;155905.06;;;16.74;77.66
12913;BME280;6524;51.368;11.984;2023-09-12T06:27:37;155996.84;;;17.10;76.41
12913;BME280;6524;51.368;11.984;2023-09-12T06:32:38;156062.34;;;17.36;75.67
12913;BME280;6524;51.368;11.984;2023-09-12T06:37:38;156138.31;;;17.65;74.75
12913;BME280;6524;51.368;11.984;2023-09-12T06:42:39;156224.91;;;17.99;75.04
12913;BME280;6524;51.368;11.984;2023-09-12T06:47:39;156285.22;;;18.22;73.79
12913;BME280;6524;51.368;11.984;2023-09-12T06:52:40;156411.13;;;18.72;72.36
12913;BME280;6524;51.368;11.984;2023-09-12T06:57:40;156476.72;;;18.97;71.71
12913;BME280;6524;51.368;11.984;2023-09-12T07:02:40;156647.34;;;19.64;69.31
12913;BME280;6524;51.368;11.984;2023-09-12T07:07:41;156731.38;;;19.96;68.95
12913;BME280;6524;51.368;11.984;2023-09-12T07:12:41;156776.03;;;20.14;68.88
12913;BME280;6524;51.368;11.984;2023-09-12T07:17:41;156931.00;;;20.74;65.79
12913;BME280;6524;51.368;11.984;2023-09-12T07:22:42;157153.00;;;21.60;62.85
12913;BME280;6524;51.368;11.984;2023-09-12T07:27:42;157443.56;;;22.73;59.47
12913;BME280;6524;51.368;11.984;2023-09-12T07:32:42;158067.41;;;25.16;53.82
12913;BME280;6524;51.368;11.984;2023-09-12T07:37:42;158740.88;;;27.77;46.11
12913;BME280;6524;51.368;11.984;2023-09-12T07:42:43;159095.81;;;29.14;43.51
12913;BME280;6524;51.368;11.984;2023-09-12T07:47:43;159672.91;;;31.38;38.85
12913;BME280;6524;51.368;11.984;2023-09-12T07:52:44;160002.06;;;32.65;36.64
12913;BME280;6524;51.368;11.984;2023-09-12T07:57:44;160506.09;;;34.60;33.33
12913;BME280;6524;51.368;11.984;2023-09-12T08:02:45;160606.63;;;34.99;32.49
12913;BME280;6524;51.368;11.984;2023-09-12T08:07:46;160626.53;;;35.06;32.08
12913;BME280;6524;51.368;11.984;2023-09-12T08:12:46;160833.00;;;35.86;31.50
12913;BME280;6524;51.368;11.984;2023-09-12T08:17:46;161235.75;;;37.41;29.05
12913;BME280;6524;51.368;11.984;2023-09-12T08:22:54;161282.13;;;37.59;29.17
12913;BME280;6524;51.368;11.984;2023-09-12T08:27:55;160976.09;;;36.41;30.80
12913;BME280;6524;51.368;11.984;2023-09-12T08:32:55;160921.75;;;36.20;30.89
12913;BME280;6524;51.368;11.984;2023-09-12T08:37:56;161116.47;;;36.95;30.25
12913;BME280;6524;51.368;11.984;2023-09-12T08:42:57;161221.16;;;37.36;29.36
12913;BME280;6524;51.368;11.984;2023-09-12T08:48:01;161015.81;;;36.57;30.51
12913;BME280;6524;51.368;11.984;2023-09-12T08:53:03;160835.75;;;35.87;31.42
12913;BME280;6524;51.368;11.984;2023-09-12T08:58:05;160851.56;;;35.93;30.78
12913;BME280;6524;51.368;11.984;2023-09-12T09:03:06;160878.09;;;36.03;30.73
12913;BME280;6524;51.368;11.984;2023-09-12T09:08:07;160992.00;;;36.47;30.31
12913;BME280;6524;51.368;11.984;2023-09-12T09:13:08;161115.16;;;36.95;29.20
12913;BME280;6524;51.368;11.984;2023-09-12T09:18:09;161320.53;;;37.74;28.03
12913;BME280;6524;51.368;11.984;2023-09-12T09:23:12;161286.13;;;37.61;28.38
12913;BME280;6524;51.368;11.984;2023-09-12T09:28:22;161283.47;;;37.60;28.50
12913;BME280;6524;51.368;11.984;2023-09-12T09:33:23;161365.66;;;37.92;27.84
12913;BME280;6524;51.368;11.984;2023-09-12T09:38:23;161580.38;;;38.74;26.62
12913;BME280;6524;51.368;11.984;2023-09-12T09:43:24;161339.06;;;37.81;27.30
12913;BME280;6524;51.368;11.984;2023-09-12T09:48:25;161406.72;;;38.07;27.10
12913;BME280;6524;51.368;11.984;2023-09-12T09:53:32;161410.66;;;38.09;27.12
12913;BME280;6524;51.368;11.984;2023-09-12T09:58:33;161418.63;;;38.12;26.79
12913;BME280;6524;51.368;11.984;2023-09-12T10:03:34;161410.66;;;38.09;26.74
12913;BME280;6524;51.368;11.984;2023-09-12T10:08:35;161441.16;;;38.21;26.77
12913;BME280;6524;51.368;11.984;2023-09-12T10:13:37;160893.97;;;36.10;28.89
12913;BME280;6524;51.368;11.984;2023-09-12T10:18:42;160381.66;;;34.12;30.96
12913;BME280;6524;51.368;11.984;2023-09-12T10:23:46;159925.34;;;32.35;32.95
12913;BME280;6524;51.368;11.984;2023-09-12T10:28:51;159629.34;;;31.21;34.70
12913;BME280;6524;51.368;11.984;2023-09-12T10:33:52;159536.81;;;30.85;35.50
12913;BME280;6524;51.368;11.984;2023-09-12T10:38:54;159583.09;;;31.03;35.16
12913;BME280;6524;51.368;11.984;2023-09-12T10:43:57;159846.09;;;32.05;33.24
12913;BME280;6524;51.368;11.984;2023-09-12T10:48:58;159955.78;;;32.47;33.10
12913;BME280;6524;51.368;11.984;2023-09-12T10:53:59;159975.59;;;32.55;33.50
12913;BME280;6524;51.368;11.984;2023-09-12T11:09:23;160142.22;;;33.19;32.01
12913;BME280;6524;51.368;11.984;2023-09-12T11:14:23;159819.63;;;31.94;34.27
12913;BME280;6524;51.368;11.984;2023-09-12T11:19:24;159663.66;;;31.34;35.36
12913;BME280;6524;51.368;11.984;2023-09-12T11:24:26;159587.06;;;31.04;36.29
12913;BME280;6524;51.368;11.984;2023-09-12T11:29:29;159497.19;;;30.70;37.43
12913;BME280;6524;51.368;11.984;2023-09-12T11:34:40;159338.75;;;30.08;38.11
12913;BME280;6524;51.368;11.984;2023-09-12T11:39:41;159008.69;;;28.81;41.72
12913;BME280;6524;51.368;11.984;2023-09-12T11:44:42;158934.78;;;28.52;42.78
12913;BME280;6524;51.368;11.984;2023-09-12T11:49:44;158900.50;;;28.39;43.00
12913;BME280;6524;51.368;11.984;2023-09-12T11:54:45;158805.53;;;28.02;42.72
12913;BME280;6524;51.368;11.984;2023-09-12T11:59:46;158583.97;;;27.16;44.88
12913;BME280;6524;51.368;11.984;2023-09-12T12:04:48;158412.56;;;26.49;45.57
12913;BME280;6524;51.368;11.984;2023-09-12T12:09:48;158460.03;;;26.68;46.69
12913;BME280;6524;51.368;11.984;2023-09-12T12:14:50;158623.47;;;27.31;44.75
12913;BME280;6524;51.368;11.984;2023-09-12T12:19:50;158631.38;;;27.34;43.36
12913;BME280;6524;51.368;11.984;2023-09-12T12:24:51;158697.38;;;27.60;43.50
12913;BME280;6524;51.368;11.984;2023-09-12T12:29:51;158645.91;;;27.40;44.45
12913;BME280;6524;51.368;11.984;2023-09-12T12:34:52;158694.72;;;27.59;44.29
12913;BME280;6524;51.368;11.984;2023-09-12T12:39:52;159061.47;;;29.01;41.88
12913;BME280;6524;51.368;11.984;2023-09-12T12:44:54;159321.53;;;30.02;39.45
12913;BME280;6524;51.368;11.984;2023-09-12T12:49:54;159413.97;;;30.37;38.49
12913;BME280;6524;51.368;11.984;2023-09-12T12:55:03;159370.44;;;30.21;39.13
12913;BME280;6524;51.368;11.984;2023-09-12T13:00:12;159484.00;;;30.65;38.67
12913;BME280;6524;51.368;11.984;2023-09-12T13:05:27;159399.44;;;30.32;38.05
12913;BME280;6524;51.368;11.984;2023-09-12T13:10:28;159402.13;;;30.33;37.98
12913;BME280;6524;51.368;11.984;2023-09-12T13:15:28;159268.72;;;29.81;38.24
12913;BME280;6524;51.368;11.984;2023-09-12T13:20:29;159341.38;;;30.09;39.43
12913;BME280;6524;51.368;11.984;2023-09-12T13:25:29;159251.56;;;29.75;38.95
12913;BME280;6524;51.368;11.984;2023-09-12T13:30:29;159130.13;;;29.28;39.78
12913;BME280;6524;51.368;11.984;2023-09-12T13:35:30;159147.25;;;29.34;39.76
12913;BME280;6524;51.368;11.984;2023-09-12T13:40:30;159126.19;;;29.26;40.28
12913;BME280;6524;51.368;11.984;2023-09-12T13:45:31;159109.03;;;29.19;39.28
12913;BME280;6524;51.368;11.984;2023-09-12T13:50:32;159156.47;;;29.38;39.47
12913;BME280;6524;51.368;11.984;2023-09-12T13:55:33;159193.44;;;29.52;39.74
12913;BME280;6524;51.368;11.984;2023-09-12T14:00:34;159180.25;;;29.47;39.66
12913;BME280;6524;51.368;11.984;2023-09-12T14:05:36;159188.16;;;29.50;39.48
12913;BME280;6524;51.368;11.984;2023-09-12T14:10:37;159164.41;;;29.41;39.51
12913;BME280;6524;51.368;11.984;2023-09-12T14:15:37;159148.56;;;29.35;40.24
12913;BME280;6524;51.368;11.984;2023-09-12T14:20:41;159111.66;;;29.20;40.62
12913;BME280;6524;51.368;11.984;2023-09-12T14:26:54;159136.72;;;29.30;40.75
12913;BME280;6524;51.368;11.984;2023-09-12T14:32:06;159074.69;;;29.06;40.92
12913;BME280;6524;51.368;11.984;2023-09-12T14:37:08;159006.06;;;28.80;40.89
12913;BME280;6524;51.368;11.984;2023-09-12T14:42:08;158955.94;;;28.60;41.48
12913;BME280;6524;51.368;11.984;2023-09-12T14:47:09;158996.84;;;28.76;40.95
12913;BME280;6524;51.368;11.984;2023-09-12T14:52:10;158929.47;;;28.50;42.45
12913;BME280;6524;51.368;11.984;2023-09-12T14:57:10;158885.97;;;28.33;43.39
12913;BME280;6524;51.368;11.984;2023-09-12T15:02:10;158821.34;;;28.08;43.96
12913;BME280;6524;51.368;11.984;2023-09-12T15:07:11;158663.03;;;27.47;44.93
12913;BME280;6524;51.368;11.984;2023-09-12T15:12:11;158615.63;;;27.28;45.59
12913;BME280;6524;51.368;11.984;2023-09-12T15:17:11;158516.69;;;26.90;46.28
12913;BME280;6524;51.368;11.984;2023-09-12T15:22:12;158502.16;;;26.84;47.18
12913;BME280;6524;51.368;11.984;2023-09-12T15:27:14;158482.44;;;26.77;47.90
12913;BME280;6524;51.368;11.984;2023-09-12T15:32:14;158462.69;;;26.69;48.15
12913;BME280;6524;51.368;11.984;2023-09-12T15:37:14;158467.94;;;26.71;47.87
12913;BME280;6524;51.368;11.984;2023-09-12T15:42:15;158421.84;;;26.53;48.95
12913;BME280;6524;51.368;11.984;2023-09-12T15:47:16;158446.88;;;26.63;49.21
12913;BME280;6524;51.368;11.984;2023-09-12T15:52:16;158398.13;;;26.44;48.83
12913;BME280;6524;51.368;11.984;2023-09-12T15:57:17;158362.47;;;26.30;49.56
12913;BME280;6524;51.368;11.984;2023-09-12T16:02:17;158347.97;;;26.24;49.70
12913;BME280;6524;51.368;11.984;2023-09-12T16:07:18;158296.63;;;26.05;50.73
12913;BME280;6524;51.368;11.984;2023-09-12T16:12:18;158245.22;;;25.85;51.41
12913;BME280;6524;51.368;11.984;2023-09-12T16:17:18;158254.44;;;25.88;51.50
12913;BME280;6524;51.368;11.984;2023-09-12T16:22:19;158225.44;;;25.77;52.08
12913;BME280;6524;51.368;11.984;2023-09-12T16:27:19;158184.63;;;25.61;52.78
12913;BME280;6524;51.368;11.984;2023-09-12T16:32:23;158105.53;;;25.30;57.08
12913;BME280;6524;51.368;11.984;2023-09-12T16:37:24;158046.31;;;25.07;58.29
12913;BME280;6524;51.368;11.984;2023-09-12T16:42:25;158016.03;;;24.96;59.60
12913;BME280;6524;51.368;11.984;2023-09-12T16:47:27;157933.06;;;24.63;60.57
12913;BME280;6524;51.368;11.984;2023-09-12T16:52:30;157935.69;;;24.64;59.22
12913;BME280;6524;51.368;11.984;2023-09-12T16:57:30;157888.28;;;24.46;60.73
12913;BME280;6524;51.368;11.984;2023-09-12T17:02:31;157779.06;;;24.04;62.91
12913;BME280;6524;51.368;11.984;2023-09-12T17:07:35;157601.41;;;23.35;64.68
12913;BME280;6524;51.368;11.984;2023-09-12T17:12:35;157611.91;;;23.39;64.89
12913;BME280;6524;51.368;11.984;2023-09-12T17:17:36;157525.13;;;23.05;65.64
12913;BME280;6524;51.368;11.984;2023-09-12T17:22:36;157479.06;;;22.87;66.41
12913;BME280;6524;51.368;11.984;2023-09-12T17:27:36;157434.34;;;22.70;66.64
12913;BME280;6524;51.368;11.984;2023-09-12T17:32:37;157350.19;;;22.37;67.62
12913;BME280;6524;51.368;11.984;2023-09-12T17:37:37;157308.16;;;22.21;67.80
12913;BME280;6524;51.368;11.984;2023-09-12T17:42:38;157276.59;;;22.08;68.31
12913;BME280;6524;51.368;11.984;2023-09-12T17:47:39;157263.44;;;22.03;67.70
12913;BME280;6524;51.368;11.984;2023-09-12T17:52:39;157170.06;;;21.67;68.97
12913;BME280;6524;51.368;11.984;2023-09-12T17:57:40;157189.81;;;21.75;68.21
12913;BME280;6524;51.368;11.984;2023-09-12T18:02:40;157162.19;;;21.64;69.55
12913;BME280;6524;51.368;11.984;2023-09-12T18:07:41;157120.16;;;21.48;70.13
12913;BME280;6524;51.368;11.984;2023-09-12T18:12:41;157029.47;;;21.12;71.09
12913;BME280;6524;51.368;11.984;2023-09-12T18:17:43;157099.16;;;21.39;70.88
12913;BME280;6524;51.368;11.984;2023-09-12T18:22:45;157093.91;;;21.37;69.98
12913;BME280;6524;51.368;11.984;2023-09-12T18:27:45;157009.81;;;21.05;70.79
12913;BME280;6524;51.368;11.984;2023-09-12T18:32:46;156923.09;;;20.71;72.14
12913;BME280;6524;51.368;11.984;2023-09-12T18:37:46;156887.63;;;20.57;72.66
12913;BME280;6524;51.368;11.984;2023-09-12T18:42:47;156869.25;;;20.50;72.88
12913;BME280;6524;51.368;11.984;2023-09-12T18:47:47;156782.56;;;20.16;74.58
12913;BME280;6524;51.368;11.984;2023-09-12T18:52:48;156791.72;;;20.20;74.71
12913;BME280;6524;51.368;11.984;2023-09-12T18:57:50;156865.34;;;20.48;73.42
12913;BME280;6524;51.368;11.984;2023-09-12T19:02:51;156889.00;;;20.58;72.30
12913;BME280;6524;51.368;11.984;2023-09-12T19:07:52;156823.25;;;20.32;72.53
12913;BME280;6524;51.368;11.984;2023-09-12T19:12:53;156839.00;;;20.38;71.75
12913;BME280;6524;51.368;11.984;2023-09-12T19:17:53;156845.56;;;20.41;71.10
12913;BME280;6524;51.368;11.984;2023-09-12T19:22:54;156879.75;;;20.54;69.85
12913;BME280;6524;51.368;11.984;2023-09-12T19:27:55;156883.72;;;20.56;69.50
12913;BME280;6524;51.368;11.984;2023-09-12T19:32:59;156873.22;;;20.51;69.60
12913;BME280;6524;51.368;11.984;2023-09-12T19:38:00;156867.97;;;20.49;69.30
12913;BME280;6524;51.368;11.984;2023-09-12T19:43:02;156881.09;;;20.55;69.20
12913;BME280;6524;51.368;11.984;2023-09-12T19:48:03;156881.09;;;20.55;68.70
12913;BME280;6524;51.368;11.984;2023-09-12T19:53:03;156867.97;;;20.49;69.46
12913;BME280;6524;51.368;11.984;2023-09-12T19:58:05;156839.00;;;20.38;69.53
12913;BME280;6524;51.368;11.984;2023-09-12T20:03:06;156815.38;;;20.29;69.86
12913;BME280;6524;51.368;11.984;2023-09-12T20:08:08;156823.25;;;20.32;70.08
12913;BME280;6524;51.368;11.984;2023-09-12T20:13:09;156815.38;;;20.29;70.06
12913;BME280;6524;51.368;11.984;2023-09-12T20:18:11;156791.72;;;20.20;70.18
12913;BME280;6524;51.368;11.984;2023-09-12T20:23:12;156786.53;;;20.18;70.49
12913;BME280;6524;51.368;11.984;2023-09-12T20:28:12;156783.91;;;20.17;70.70
12913;BME280;6524;51.368;11.984;2023-09-12T20:33:12;156726.09;;;19.94;71.39
12913;BME280;6524;51.368;11.984;2023-09-12T20:38:13;156689.34;;;19.80;72.39
12913;BME280;6524;51.368;11.984;2023-09-12T20:43:14;156655.22;;;19.67;73.34
12913;BME280;6524;51.368;11.984;2023-09-12T20:48:15;156636.81;;;19.59;73.47
12913;BME280;6524;51.368;11.984;2023-09-12T20:53:18;156623.72;;;19.54;73.38
12913;BME280;6524;51.368;11.984;2023-09-12T20:58:19;156636.81;;;19.59;71.82
12913;BME280;6524;51.368;11.984;2023-09-12T21:03:19;156638.13;;;19.60;71.03
12913;BME280;6524;51.368;11.984;2023-09-12T21:08:19;156636.81;;;19.59;70.10
12913;BME280;6524;51.368;11.984;2023-09-12T21:13:20;156626.34;;;19.55;70.47
12913;BME280;6524;51.368;11.984;2023-09-12T21:18:20;156630.25;;;19.57;70.25
12913;BME280;6524;51.368;11.984;2023-09-12T21:23:20;156628.94;;;19.56;70.01
12913;BME280;6524;51.368;11.984;2023-09-12T21:28:21;156648.66;;;19.64;70.23
12913;BME280;6524;51.368;11.984;2023-09-12T21:33:21;156665.72;;;19.71;69.22
12913;BME280;6524;51.368;11.984;2023-09-12T21:38:22;156640.78;;;19.61;69.75
12913;BME280;6524;51.368;11.984;2023-09-12T21:43:22;156643.41;;;19.62;70.05
12913;BME280;6524;51.368;11.984;2023-09-12T21:48:23;156651.28;;;19.65;69.32
12913;BME280;6524;51.368;11.984;2023-09-12T21:53:23;156674.91;;;19.74;68.96
12913;BME280;6524;51.368;11.984;2023-09-12T21:58:24;156636.81;;;19.59;69.22
12913;BME280;6524;51.368;11.984;2023-09-12T22:03:24;156615.84;;;19.51;69.49
12913;BME280;6524;51.368;11.984;2023-09-12T22:08:24;156630.25;;;19.57;69.47
12913;BME280;6524;51.368;11.984;2023-09-12T22:13:25;156626.34;;;19.55;69.29
12913;BME280;6524;51.368;11.984;2023-09-12T22:18:25;156579.09;;;19.37;70.99
12913;BME280;6524;51.368;11.984;2023-09-12T22:23:26;156563.34;;;19.31;71.48
12913;BME280;6524;51.368;11.984;2023-09-12T22:28:26;156550.22;;;19.26;71.03
12913;BME280;6524;51.368;11.984;2023-09-12T22:33:26;156559.44;;;19.29;71.56
12913;BME280;6524;51.368;11.984;2023-09-12T22:38:27;156563.34;;;19.31;71.76
12913;BME280;6524;51.368;11.984;2023-09-12T22:43:27;156547.59;;;19.25;71.41
12913;BME280;6524;51.368;11.984;2023-09-12T22:48:27;156524.00;;;19.15;72.68
12913;BME280;6524;51.368;11.984;2023-09-12T22:53:28;156518.78;;;19.13;72.56
12913;BME280;6524;51.368;11.984;2023-09-12T22:58:29;156510.84;;;19.10;72.63
12913;BME280;6524;51.368;11.984;2023-09-12T23:03:31;156517.41;;;19.13;72.30
12913;BME280;6524;51.368;11.984;2023-09-12T23:08:32;156508.19;;;19.09;71.92
12913;BME280;6524;51.368;11.984;2023-09-12T23:13:32;156437.34;;;18.82;72.18
12913;BME280;6524;51.368;11.984;2023-09-12T23:18:33;156436.06;;;18.81;72.26
12913;BME280;6524;51.368;11.984;2023-09-12T23:23:35;156409.84;;;18.71;72.47
12913;BME280;6524;51.368;11.984;2023-09-12T23:28:35;156353.44;;;18.49;73.55
